Погода Мачингана 2 недели

Южная Провинция, Малави

25 июля-06 августа
  • 25июля
    Сегодня
    +13°
    +29°
    Ясно и безоблачно
    ВремяПогодаТемператураВлажностьДавлениеВетер, м/сВероятность осадков
    02:00Ясно и безоблачно+15°C64 %704 мм1.9 м/с5 %
    05:00Ясно и безоблачно+13°C73 %704 мм2.3 м/с5 %
    08:00Ясно и безоблачно+20°C54 %707 мм1.4 м/с5 %
    11:00Ясно и безоблачно+26°C24 %707 мм0.7 м/с5 %
    14:00Ясно и безоблачно+28°C17 %705 мм1.7 м/с5 %
    17:00Ясно и безоблачно+27°C19 %705 мм2.7 м/с5 %
    20:00Ясно и безоблачно+21°C35 %705 мм2.4 м/с5 %
    23:00Ясно и безоблачно+18°C45 %705 мм2.6 м/с5 %
  • 26июля
    Пятница
    +13°
    +29°
    Ясно и безоблачно
    ВремяПогодаТемператураВлажностьДавлениеВетер, м/сВероятность осадков
    02:00Ясно и безоблачно+15°C61 %704 мм2.2 м/с5 %
    05:00Ясно и безоблачно+14°C68 %704 мм2.7 м/с5 %
    08:00Ясно и безоблачно+20°C50 %707 мм2.7 м/с5 %
    11:00Ясно и безоблачно+26°C22 %708 мм2.1 м/с5 %
    14:00Ясно и безоблачно+28°C15 %706 мм3.7 м/с5 %
    17:00Ясно и безоблачно+27°C21 %705 мм2.3 м/с5 %
    20:00Ясно и безоблачно+23°C31 %706 мм3.7 м/с5 %
    23:00Ясно и безоблачно+18°C51 %706 мм3.2 м/с5 %
  • 27июля
    Суббота
    +13°
    +29°
    Ясно и безоблачно
    ВремяПогодаТемператураВлажностьДавлениеВетер, м/сВероятность осадков
    02:00Ясно и безоблачно+17°C59 %705 мм3.2 м/с5 %
    05:00Ясно и безоблачно+14°C77 %705 мм2.6 м/с5 %
    08:00Ясно и безоблачно+20°C61 %708 мм2.7 м/с5 %
    11:00Ясно и безоблачно+26°C26 %708 мм2.8 м/с5 %
    14:00Ясно и безоблачно+28°C17 %705 мм1.7 м/с5 %
    17:00Ясно и безоблачно+27°C18 %706 мм1.6 м/с5 %
    20:00Ясно и безоблачно+21°C34 %705 мм2.1 м/с5 %
    23:00Ясно и безоблачно+19°C48 %705 мм2.5 м/с5 %
  • 28июля
    Воскресенье
    +13°
    +30°
    Ясно и безоблачно
    ВремяПогодаТемператураВлажностьДавлениеВетер, м/сВероятность осадков
    02:00Ясно и безоблачно+17°C63 %704 мм2.6 м/с5 %
    05:00Ясно и безоблачно+14°C75 %704 мм2.3 м/с5 %
    08:00Ясно и безоблачно+21°C41 %707 мм2.1 м/с5 %
    11:00Ясно и безоблачно+27°C21 %707 мм1.5 м/с5 %
    14:00Ясно и безоблачно+30°C14 %705 мм1.0 м/с5 %
    17:00Ясно и безоблачно+28°C17 %704 мм1.9 м/с5 %
    20:00Ясно и безоблачно+21°C28 %704 мм1.5 м/с5 %
    23:00Ясно и безоблачно+20°C30 %704 мм1.5 м/с5 %
Мы используем cookies
Соглашаюсь